createdAt,value
2019-03-25T00:00:22.148Z,292.75
2019-03-25T00:01:22.482Z,292.47
2019-03-25T00:02:22.793Z,292.27
2019-03-25T00:03:23.153Z,292.12
2019-03-25T00:04:23.445Z,292.15
2019-03-25T00:05:23.811Z,292.70
2019-03-25T00:06:24.117Z,291.90
2019-03-25T00:07:24.540Z,292.66
2019-03-25T00:08:24.795Z,292.67
2019-03-25T00:09:25.075Z,292.43
2019-03-25T00:10:25.444Z,291.58
2019-03-25T00:11:25.771Z,291.64
2019-03-25T00:12:26.101Z,291.42
2019-03-25T00:13:26.472Z,291.58
2019-03-25T00:14:26.760Z,291.45
2019-03-25T00:15:27.136Z,291.39
2019-03-25T00:16:27.424Z,291.50
2019-03-25T00:17:27.758Z,291.42
2019-03-25T00:18:28.101Z,291.19
2019-03-25T00:19:28.407Z,291.59
2019-03-25T00:20:28.755Z,291.33
2019-03-25T00:21:29.063Z,291.12
2019-03-25T00:22:29.393Z,290.98
2019-03-25T00:23:29.769Z,290.75
2019-03-25T00:24:38.246Z,290.61
2019-03-25T00:25:31.460Z,290.50
2019-03-25T00:26:30.767Z,290.79
2019-03-25T00:27:31.074Z,290.18
2019-03-25T00:28:31.452Z,290.36
2019-03-25T00:29:45.402Z,291.28
2019-03-25T00:30:32.087Z,291.27
2019-03-25T00:31:32.462Z,290.59
2019-03-25T00:32:33.051Z,290.32
2019-03-25T00:33:33.089Z,290.55
2019-03-25T00:34:33.397Z,290.62
2019-03-25T00:35:33.740Z,290.31
2019-03-25T00:36:34.066Z,290.00
2019-03-25T00:37:34.375Z,290.61
2019-03-25T00:38:34.707Z,290.29
2019-03-25T00:39:35.039Z,290.74
2019-03-25T00:40:35.440Z,290.28
2019-03-25T00:41:35.686Z,290.50
2019-03-25T00:42:35.997Z,290.59
2019-03-25T00:43:36.356Z,290.74
2019-03-25T00:44:36.687Z,290.55
2019-03-25T00:45:37.006Z,290.60
2019-03-25T00:46:37.352Z,290.62
2019-03-25T00:47:37.687Z,290.65
2019-03-25T00:48:38.036Z,290.71
2019-03-25T00:49:38.334Z,290.32
2019-03-25T00:50:38.674Z,290.01
2019-03-25T00:51:39.016Z,290.64
2019-03-25T00:52:39.346Z,291.12
2019-03-25T00:53:39.699Z,290.44
2019-03-25T00:54:49.381Z,290.69
2019-03-25T00:55:41.315Z,290.55
2019-03-25T00:56:40.734Z,290.69
2019-03-25T00:57:40.969Z,291.00
2019-03-25T00:58:41.327Z,290.90
2019-03-25T00:59:41.661Z,290.95
2019-03-25T01:00:41.956Z,291.04
2019-03-25T01:01:42.308Z,291.45
2019-03-25T01:02:42.659Z,290.78
2019-03-25T01:03:43.017Z,291.22
2019-03-25T01:04:43.336Z,290.97
2019-03-25T01:05:43.692Z,291.05
2019-03-25T01:06:43.965Z,290.99
2019-03-25T01:07:44.298Z,291.32
2019-03-25T01:08:44.650Z,290.80
2019-03-25T01:09:44.960Z,291.22
2019-03-25T01:10:45.280Z,291.10
2019-03-25T01:11:49.125Z,291.15
2019-03-25T01:12:45.924Z,291.01
2019-03-25T01:13:46.403Z,291.48
2019-03-25T01:14:46.608Z,291.07
2019-03-25T01:15:46.922Z,291.35
2019-03-25T01:16:47.255Z,291.18
2019-03-25T01:17:47.566Z,291.09
2019-03-25T01:18:47.943Z,290.57
2019-03-25T01:19:48.264Z,290.67
2019-03-25T01:20:48.578Z,290.78
2019-03-25T01:21:48.988Z,290.87
2019-03-25T01:22:49.203Z,290.84
2019-03-25T01:23:49.569Z,290.27
2019-03-25T01:25:00.821Z,290.98
2019-03-25T01:25:51.213Z,290.76
2019-03-25T01:26:50.565Z,290.45
2019-03-25T01:27:50.869Z,290.84
2019-03-25T01:28:51.213Z,289.66
2019-03-25T01:29:51.597Z,290.55
2019-03-25T01:30:51.857Z,291.15
2019-03-25T01:31:52.211Z,291.27
2019-03-25T01:32:52.516Z,290.83
2019-03-25T01:33:52.861Z,290.94
2019-03-25T01:34:53.177Z,290.13
2019-03-25T01:35:53.518Z,290.52
2019-03-25T01:36:53.860Z,290.40
2019-03-25T01:37:54.212Z,290.67
2019-03-25T01:38:54.559Z,290.92
2019-03-25T01:39:54.823Z,290.88
2019-03-25T01:40:55.160Z,290.24
2019-03-25T01:41:55.506Z,290.60
2019-03-25T01:42:55.808Z,290.44
2019-03-25T01:43:56.165Z,289.72
2019-03-25T01:44:56.495Z,290.02
2019-03-25T01:45:56.796Z,289.97
2019-03-25T01:46:57.242Z,289.80
2019-03-25T01:47:57.461Z,290.16
2019-03-25T01:48:57.816Z,290.27
2019-03-25T01:49:58.169Z,289.86
2019-03-25T01:50:58.427Z,289.89
2019-03-25T01:51:58.792Z,289.17
2019-03-25T01:52:59.106Z,289.88
2019-03-25T01:53:59.440Z,289.59
2019-03-25T01:55:00.353Z,289.45
2019-03-25T01:56:00.091Z,289.41
2019-03-25T01:57:00.455Z,289.78
2019-03-25T01:58:00.765Z,289.67
2019-03-25T01:59:01.080Z,289.97
2019-03-25T02:00:01.460Z,289.69
2019-03-25T02:01:01.755Z,289.76
2019-03-25T02:02:02.084Z,289.80
2019-03-25T02:03:02.465Z,289.28
2019-03-25T02:04:02.720Z,289.81
2019-03-25T02:05:03.091Z,289.95
2019-03-25T02:06:03.390Z,289.74
2019-03-25T02:07:03.739Z,289.66
2019-03-25T02:08:04.035Z,289.75
2019-03-25T02:09:04.375Z,290.08
2019-03-25T02:10:04.769Z,290.38
2019-03-25T02:11:05.077Z,290.24
2019-03-25T02:12:05.365Z,290.21
2019-03-25T02:13:05.679Z,289.81
2019-03-25T02:14:06.024Z,290.32
2019-03-25T02:15:06.413Z,289.80
2019-03-25T02:16:06.694Z,289.76
2019-03-25T02:17:07.042Z,290.35
2019-03-25T02:18:07.345Z,289.96
2019-03-25T02:19:07.701Z,289.60
2019-03-25T02:20:08.155Z,290.14
2019-03-25T02:21:08.355Z,290.13
2019-03-25T02:22:08.938Z,289.49
2019-03-25T02:23:09.425Z,289.40
2019-03-25T02:24:09.335Z,289.70
2019-03-25T02:25:09.683Z,289.39
2019-03-25T02:26:10.007Z,290.25
2019-03-25T02:27:10.350Z,289.44
2019-03-25T02:28:10.771Z,289.85
2019-03-25T02:29:10.969Z,289.78
2019-03-25T02:30:11.333Z,289.80
2019-03-25T02:31:11.676Z,290.10
2019-03-25T02:32:12.005Z,289.07
2019-03-25T02:33:12.335Z,289.53
2019-03-25T02:34:12.655Z,289.58
2019-03-25T02:35:12.983Z,289.23
2019-03-25T02:36:13.377Z,289.64
2019-03-25T02:37:13.644Z,289.97
2019-03-25T02:38:13.962Z,289.78
2019-03-25T02:39:14.298Z,290.02
2019-03-25T02:40:14.660Z,289.94
2019-03-25T02:41:14.938Z,290.17
2019-03-25T02:42:15.297Z,290.09
2019-03-25T02:43:15.636Z,289.47
2019-03-25T02:44:15.994Z,289.68
2019-03-25T02:45:16.285Z,289.45
2019-03-25T02:46:16.619Z,289.74
2019-03-25T02:47:16.926Z,289.68
2019-03-25T02:48:17.249Z,289.93
2019-03-25T02:49:17.602Z,290.08
2019-03-25T02:50:17.933Z,289.82
2019-03-25T02:51:18.245Z,289.99
2019-03-25T02:52:18.595Z,289.82
2019-03-25T02:53:18.973Z,289.53
2019-03-25T02:54:19.273Z,289.66
2019-03-25T02:55:19.604Z,289.52
2019-03-25T02:56:19.900Z,290.27
2019-03-25T02:57:20.224Z,289.98
2019-03-25T02:58:20.555Z,290.60
2019-03-25T02:59:20.947Z,290.04
2019-03-25T03:00:21.257Z,289.83
2019-03-25T03:01:21.685Z,289.93
2019-03-25T03:02:21.873Z,289.73
2019-03-25T03:03:22.242Z,290.35
2019-03-25T03:04:22.628Z,289.76
2019-03-25T03:05:22.935Z,289.78
2019-03-25T03:06:23.245Z,289.63
2019-03-25T03:07:23.643Z,290.21
2019-03-25T03:08:23.934Z,290.97
2019-03-25T03:09:24.344Z,290.48
2019-03-25T03:10:24.581Z,290.09
2019-03-25T03:11:24.898Z,290.01
2019-03-25T03:12:25.218Z,289.84
2019-03-25T03:13:25.564Z,289.90
2019-03-25T03:14:25.870Z,289.66
2019-03-25T03:15:26.229Z,290.05
2019-03-25T03:16:26.562Z,289.94
2019-03-25T03:17:26.910Z,289.93
2019-03-25T03:18:27.206Z,289.91
2019-03-25T03:19:27.529Z,290.15
2019-03-25T03:20:27.856Z,290.00
2019-03-25T03:21:28.204Z,289.80
2019-03-25T03:22:28.530Z,290.01
2019-03-25T03:23:28.874Z,289.62
2019-03-25T03:24:29.183Z,290.37
2019-03-25T03:25:29.588Z,290.29
2019-03-25T03:26:29.852Z,289.86
2019-03-25T03:27:30.227Z,289.84
2019-03-25T03:28:30.531Z,289.86
2019-03-25T03:29:30.841Z,290.18
2019-03-25T03:30:31.181Z,290.50
2019-03-25T03:31:31.491Z,290.20
2019-03-25T03:32:31.822Z,289.97
2019-03-25T03:33:32.208Z,290.31
2019-03-25T03:34:32.618Z,290.50
2019-03-25T03:35:32.866Z,290.70
2019-03-25T03:36:33.146Z,289.89
2019-03-25T03:37:33.481Z,290.62
2019-03-25T03:38:33.846Z,290.19
2019-03-25T03:39:34.160Z,289.81
2019-03-25T03:40:34.505Z,290.30
2019-03-25T03:41:34.829Z,290.06
2019-03-25T03:42:35.286Z,290.01
2019-03-25T03:43:35.504Z,290.40
2019-03-25T03:44:35.821Z,289.96
2019-03-25T03:45:36.166Z,289.75
2019-03-25T03:46:36.469Z,289.87
2019-03-25T03:47:36.796Z,289.43
2019-03-25T03:48:37.157Z,289.95
2019-03-25T03:49:37.474Z,289.50
2019-03-25T03:50:37.868Z,289.72
2019-03-25T03:51:38.135Z,290.00
2019-03-25T03:52:38.451Z,290.37
2019-03-25T03:53:38.798Z,290.44
2019-03-25T03:54:39.126Z,290.46
2019-03-25T03:55:39.445Z,289.82
2019-03-25T03:56:39.797Z,289.32
2019-03-25T03:57:40.105Z,290.10
2019-03-25T03:58:40.460Z,289.80
2019-03-25T03:59:40.735Z,290.22
2019-03-25T04:00:41.095Z,289.88
2019-03-25T04:01:41.834Z,290.14
2019-03-25T04:02:41.983Z,289.85
2019-03-25T04:03:42.089Z,289.49
2019-03-25T04:04:42.416Z,289.71
2019-03-25T04:05:42.747Z,289.39
2019-03-25T04:06:43.146Z,290.41
2019-03-25T04:07:43.460Z,290.95
2019-03-25T04:08:43.772Z,290.90
2019-03-25T04:09:44.079Z,291.19
2019-03-25T04:10:44.410Z,290.60
2019-03-25T04:11:44.763Z,290.27
2019-03-25T04:12:45.063Z,290.31
2019-03-25T04:13:45.414Z,290.74
2019-03-25T04:14:45.731Z,291.27
2019-03-25T04:15:46.191Z,289.88
2019-03-25T04:16:46.399Z,290.22
2019-03-25T04:17:46.707Z,289.67
2019-03-25T04:18:47.051Z,290.54
2019-03-25T04:19:47.362Z,290.46
2019-03-25T04:20:47.698Z,290.05
2019-03-25T04:21:48.035Z,290.33
2019-03-25T04:22:48.368Z,290.02
2019-03-25T04:23:48.796Z,289.68
2019-03-25T04:24:49.003Z,289.62
2019-03-25T04:25:49.338Z,290.56
2019-03-25T04:26:49.659Z,290.88
2019-03-25T04:27:50.009Z,290.57
2019-03-25T04:28:50.343Z,290.93
2019-03-25T04:29:50.653Z,290.87
2019-03-25T04:30:50.985Z,290.75
2019-03-25T04:31:51.361Z,290.69
2019-03-25T04:32:51.823Z,290.92
2019-03-25T04:33:51.981Z,291.38
2019-03-25T04:34:52.295Z,290.26
2019-03-25T04:35:52.623Z,291.22
2019-03-25T04:36:52.984Z,289.92
2019-03-25T04:37:56.177Z,290.15
2019-03-25T04:38:53.615Z,290.48
2019-03-25T04:39:54.012Z,290.14
2019-03-25T04:40:54.301Z,291.38
2019-03-25T04:41:54.648Z,290.36
2019-03-25T04:42:54.954Z,290.40
2019-03-25T04:43:55.279Z,290.59
2019-03-25T04:44:55.582Z,290.80
2019-03-25T04:45:55.935Z,290.94
2019-03-25T04:46:56.282Z,290.67
2019-03-25T04:47:56.612Z,290.31
2019-03-25T04:48:57.040Z,290.72
2019-03-25T04:49:57.247Z,292.88
2019-03-25T04:50:57.582Z,291.44
2019-03-25T04:51:57.925Z,290.56
2019-03-25T04:52:58.249Z,289.98
2019-03-25T04:53:58.589Z,290.77
2019-03-25T04:54:58.876Z,290.83
2019-03-25T04:55:59.208Z,290.81
2019-03-25T04:56:59.722Z,291.30
2019-03-25T04:57:59.898Z,291.15
2019-03-25T04:59:00.238Z,290.53
2019-03-25T05:00:00.555Z,291.08
2019-03-25T05:01:05.841Z,291.05
2019-03-25T05:02:01.225Z,290.48
2019-03-25T05:03:01.558Z,290.87
2019-03-25T05:04:01.882Z,291.12
2019-03-25T05:05:02.283Z,290.44
2019-03-25T05:06:02.482Z,290.83
2019-03-25T05:07:02.873Z,291.33
2019-03-25T05:08:03.186Z,291.44
2019-03-25T05:09:03.519Z,292.01
2019-03-25T05:10:03.832Z,291.83
2019-03-25T05:11:04.158Z,291.20
2019-03-25T05:12:04.492Z,291.24
2019-03-25T05:13:04.883Z,291.60
2019-03-25T05:14:05.129Z,292.52
2019-03-25T05:15:05.468Z,293.36
2019-03-25T05:16:05.790Z,293.85
2019-03-25T05:17:06.122Z,292.70
2019-03-25T05:18:06.440Z,292.35
2019-03-25T05:19:06.788Z,292.35
2019-03-25T05:20:07.130Z,290.92
2019-03-25T05:21:07.480Z,290.97
2019-03-25T05:22:07.943Z,291.17
2019-03-25T05:23:08.114Z,292.37
2019-03-25T05:24:08.450Z,292.30
2019-03-25T05:25:08.793Z,291.77
2019-03-25T05:26:09.109Z,292.37
2019-03-25T05:27:09.460Z,292.50
2019-03-25T05:28:09.776Z,291.40
2019-03-25T05:29:10.094Z,290.67
2019-03-25T05:30:10.523Z,291.18
2019-03-25T05:31:10.767Z,290.56
2019-03-25T05:32:11.491Z,291.80
2019-03-25T05:33:11.427Z,291.94
2019-03-25T05:34:11.738Z,292.50
2019-03-25T05:35:12.084Z,291.46
2019-03-25T05:36:12.400Z,291.04
2019-03-25T05:37:12.755Z,292.72
2019-03-25T05:38:13.173Z,292.17
2019-03-25T05:39:13.372Z,292.58
2019-03-25T05:40:13.970Z,293.42
2019-03-25T05:41:14.052Z,291.97
2019-03-25T05:42:14.393Z,291.99
2019-03-25T05:43:14.716Z,291.47
2019-03-25T05:44:15.035Z,292.46
2019-03-25T05:45:15.365Z,292.75
2019-03-25T05:46:15.747Z,292.04
2019-03-25T05:47:16.031Z,292.27
2019-03-25T05:48:16.381Z,292.32
2019-03-25T05:49:16.700Z,292.17
2019-03-25T05:50:17.035Z,292.70
2019-03-25T05:51:17.333Z,292.40
2019-03-25T05:52:17.690Z,292.75
2019-03-25T05:53:18.018Z,293.17
2019-03-25T05:54:18.396Z,292.73
2019-03-25T05:55:18.705Z,293.74
2019-03-25T05:56:18.984Z,293.46
2019-03-25T05:57:19.334Z,292.26
2019-03-25T05:58:19.708Z,293.18
2019-03-25T05:59:19.993Z,291.24
2019-03-25T06:00:20.339Z,292.92
2019-03-25T06:01:20.651Z,292.98
2019-03-25T06:02:21.022Z,292.28
2019-03-25T06:03:21.443Z,292.90
2019-03-25T06:04:21.641Z,291.32
2019-03-25T06:05:21.988Z,292.76
2019-03-25T06:06:22.301Z,291.73
2019-03-25T06:07:22.648Z,291.77
2019-03-25T06:08:22.972Z,292.34
2019-03-25T06:09:23.292Z,292.37
2019-03-25T06:10:23.633Z,292.13
2019-03-25T06:11:24.035Z,292.29
2019-03-25T06:12:24.273Z,292.24
2019-03-25T06:13:24.626Z,293.34
2019-03-25T06:14:24.959Z,293.55
2019-03-25T06:15:25.301Z,292.86
2019-03-25T06:16:25.614Z,293.35
2019-03-25T06:17:25.957Z,295.05
2019-03-25T06:18:26.276Z,293.62
2019-03-25T06:19:26.669Z,292.80
2019-03-25T06:20:26.933Z,293.32
2019-03-25T06:21:27.255Z,294.41
2019-03-25T06:22:27.586Z,293.89
2019-03-25T06:23:27.938Z,294.50
2019-03-25T06:24:28.253Z,295.11
2019-03-25T06:25:28.612Z,295.15
2019-03-25T06:26:28.935Z,295.57
2019-03-25T06:27:29.315Z,296.75
2019-03-25T06:28:29.610Z,294.94
2019-03-25T06:29:31.944Z,295.07
2019-03-25T06:30:30.251Z,295.30
2019-03-25T06:31:30.595Z,295.84
2019-03-25T06:32:30.944Z,295.17
2019-03-25T06:33:31.290Z,295.47
2019-03-25T06:34:31.623Z,294.78
2019-03-25T06:35:31.962Z,294.13
2019-03-25T06:36:32.333Z,293.34
2019-03-25T06:37:32.592Z,293.03
2019-03-25T06:38:32.941Z,293.38
2019-03-25T06:39:33.264Z,292.18
2019-03-25T06:40:33.595Z,292.19
2019-03-25T06:41:33.895Z,291.86
2019-03-25T06:42:34.242Z,292.52
2019-03-25T06:43:34.611Z,293.40
2019-03-25T06:44:35.037Z,293.51
2019-03-25T06:45:35.256Z,294.10
2019-03-25T06:46:35.560Z,294.39
2019-03-25T06:47:35.913Z,291.59
2019-03-25T06:48:36.246Z,291.88
2019-03-25T06:49:36.575Z,291.56
2019-03-25T06:50:36.919Z,292.86
2019-03-25T06:51:37.232Z,291.98
2019-03-25T06:52:37.630Z,292.22
2019-03-25T06:53:37.893Z,292.88
2019-03-25T06:54:38.220Z,293.53
2019-03-25T06:55:38.556Z,292.97
2019-03-25T06:56:38.868Z,293.97
2019-03-25T06:57:39.182Z,293.73
2019-03-25T06:58:39.545Z,293.84
2019-03-25T06:59:39.885Z,294.25
2019-03-25T07:00:40.299Z,294.52
2019-03-25T07:01:40.517Z,294.47
2019-03-25T07:02:40.858Z,293.77
2019-03-25T07:03:41.185Z,293.19
2019-03-25T07:04:41.515Z,295.10
2019-03-25T07:05:41.857Z,294.67
2019-03-25T07:06:42.171Z,292.74
2019-03-25T07:07:42.500Z,293.32
2019-03-25T07:08:42.926Z,293.28
2019-03-25T07:09:43.158Z,292.99
2019-03-25T07:10:43.515Z,292.59
2019-03-25T07:11:43.823Z,292.74
2019-03-25T07:12:44.154Z,292.25
2019-03-25T07:13:44.514Z,293.49
2019-03-25T07:14:44.823Z,293.97
2019-03-25T07:15:45.150Z,294.07
2019-03-25T07:16:45.490Z,293.12
2019-03-25T07:17:45.956Z,293.79
2019-03-25T07:18:46.407Z,293.68
2019-03-25T07:19:46.492Z,293.37
2019-03-25T07:20:46.795Z,294.10
2019-03-25T07:21:47.142Z,293.24
2019-03-25T07:22:47.489Z,293.49
2019-03-25T07:23:47.831Z,293.82
2019-03-25T07:24:48.150Z,294.26
2019-03-25T07:25:48.604Z,294.01
2019-03-25T07:26:48.837Z,294.77
2019-03-25T07:27:49.167Z,296.07
2019-03-25T07:28:49.510Z,296.37
2019-03-25T07:29:49.833Z,296.29
2019-03-25T07:30:50.157Z,296.02
2019-03-25T07:31:50.477Z,295.95
2019-03-25T07:32:50.834Z,296.41
2019-03-25T07:33:51.261Z,295.42
2019-03-25T07:34:51.483Z,295.91
2019-03-25T07:35:51.812Z,295.13
2019-03-25T07:36:52.170Z,295.44
2019-03-25T07:37:52.456Z,295.98
2019-03-25T07:38:52.822Z,294.85
2019-03-25T07:39:53.141Z,294.17
2019-03-25T07:40:53.466Z,294.35
2019-03-25T07:41:53.873Z,295.06
2019-03-25T07:42:54.074Z,294.56
2019-03-25T07:43:54.454Z,294.67
2019-03-25T07:44:54.829Z,295.81
2019-03-25T07:45:55.123Z,295.17
2019-03-25T07:46:55.473Z,295.82
2019-03-25T07:47:55.784Z,294.53
2019-03-25T07:48:56.134Z,295.64
2019-03-25T07:49:56.474Z,294.20
2019-03-25T07:50:56.861Z,294.81
2019-03-25T07:51:57.125Z,294.34
2019-03-25T07:52:57.438Z,294.69
2019-03-25T07:53:57.794Z,294.63
2019-03-25T07:54:58.119Z,294.19
2019-03-25T07:55:58.434Z,294.91
2019-03-25T07:56:58.787Z,295.30
2019-03-25T07:57:59.098Z,295.38
2019-03-25T07:58:59.546Z,295.10
2019-03-25T07:59:59.782Z,295.12
2019-03-25T08:01:00.075Z,293.78
2019-03-25T08:02:00.423Z,293.87
2019-03-25T08:03:00.735Z,293.40
2019-03-25T08:04:01.092Z,293.38
2019-03-25T08:05:01.431Z,293.15
2019-03-25T08:06:01.730Z,293.82
2019-03-25T08:07:02.182Z,293.86
2019-03-25T08:08:02.392Z,293.79
2019-03-25T08:09:03.919Z,293.28
2019-03-25T08:10:03.126Z,293.78
2019-03-25T08:11:03.373Z,293.17
2019-03-25T08:12:03.772Z,293.40
2019-03-25T08:13:04.093Z,293.49
2019-03-25T08:14:04.430Z,293.34
2019-03-25T08:15:04.854Z,293.19
2019-03-25T08:16:05.022Z,293.83
2019-03-25T08:17:05.359Z,293.74
2019-03-25T08:18:05.690Z,293.19
2019-03-25T08:19:06.030Z,292.98
2019-03-25T08:20:06.376Z,292.20
2019-03-25T08:21:06.674Z,292.50
2019-03-25T08:22:07.027Z,292.66
2019-03-25T08:23:07.361Z,291.87
2019-03-25T08:24:07.712Z,292.39
2019-03-25T08:25:08.020Z,292.92
2019-03-25T08:26:08.335Z,291.78
2019-03-25T08:27:08.673Z,292.95
2019-03-25T08:28:08.977Z,292.67
2019-03-25T08:29:09.326Z,293.53
2019-03-25T08:30:09.681Z,293.05
2019-03-25T08:31:10.059Z,293.16
2019-03-25T08:32:10.466Z,293.09
2019-03-25T08:33:10.647Z,293.18
2019-03-25T08:34:10.991Z,293.20
2019-03-25T08:35:11.345Z,293.62
2019-03-25T08:36:11.687Z,293.41
2019-03-25T08:37:12.021Z,293.98
2019-03-25T08:38:12.325Z,293.63
2019-03-25T08:39:12.645Z,293.48
2019-03-25T08:40:13.189Z,293.24
2019-03-25T08:41:13.399Z,293.80
2019-03-25T08:42:13.737Z,292.67
2019-03-25T08:43:14.049Z,292.71
2019-03-25T08:44:14.369Z,292.93
2019-03-25T08:45:14.725Z,292.65
2019-03-25T08:46:15.049Z,292.56
2019-03-25T08:47:15.388Z,292.18
2019-03-25T08:48:15.786Z,292.99
2019-03-25T08:49:16.014Z,293.13
2019-03-25T08:50:16.353Z,292.08
2019-03-25T08:51:16.690Z,293.55
2019-03-25T08:52:17.026Z,293.09
2019-03-25T08:53:17.340Z,293.48
2019-03-25T08:54:17.673Z,292.89
2019-03-25T08:55:18.261Z,293.01
2019-03-25T08:56:18.348Z,292.38
2019-03-25T08:57:18.661Z,292.53
2019-03-25T08:58:18.985Z,292.13
2019-03-25T08:59:19.310Z,292.27
2019-03-25T09:00:19.669Z,292.42
2019-03-25T09:01:19.986Z,292.26
2019-03-25T09:02:20.314Z,291.69
2019-03-25T09:03:20.649Z,291.52
2019-03-25T09:04:21.240Z,292.80
2019-03-25T09:05:21.414Z,293.12
2019-03-25T09:06:21.643Z,291.49
2019-03-25T09:07:21.965Z,293.05
2019-03-25T09:08:22.294Z,292.16
2019-03-25T09:09:22.640Z,291.95
2019-03-25T09:10:22.986Z,291.79
2019-03-25T09:11:23.309Z,292.64
2019-03-25T09:12:23.650Z,291.44
2019-03-25T09:13:24.045Z,291.74
2019-03-25T09:14:24.283Z,292.13
2019-03-25T09:15:24.626Z,292.33
2019-03-25T09:16:24.946Z,292.14
2019-03-25T09:17:25.295Z,290.01
2019-03-25T09:18:25.595Z,289.41
2019-03-25T09:19:25.949Z,289.78
2019-03-25T09:20:26.309Z,290.32
2019-03-25T09:21:26.727Z,290.85
2019-03-25T09:22:26.955Z,290.77
2019-03-25T09:23:27.267Z,291.46
2019-03-25T09:24:27.585Z,292.14
2019-03-25T09:25:27.954Z,293.15
2019-03-25T09:26:28.268Z,292.95
2019-03-25T09:27:28.597Z,292.77
2019-03-25T09:28:28.917Z,292.71
2019-03-25T09:29:29.268Z,292.61
2019-03-25T09:30:29.573Z,292.73
2019-03-25T09:31:36.838Z,293.15
2019-03-25T09:32:31.259Z,292.87
2019-03-25T09:33:30.581Z,292.39
2019-03-25T09:34:30.897Z,290.81
2019-03-25T09:35:31.251Z,289.67
2019-03-25T09:36:31.570Z,290.36
2019-03-25T09:37:31.949Z,290.40
2019-03-25T09:38:32.266Z,290.65
2019-03-25T09:39:32.566Z,290.87
2019-03-25T09:40:32.903Z,291.17
2019-03-25T09:41:33.229Z,291.13
2019-03-25T09:42:33.549Z,290.42
2019-03-25T09:43:33.872Z,291.01
2019-03-25T09:44:34.202Z,290.62
2019-03-25T09:45:34.577Z,289.50
2019-03-25T09:46:34.979Z,289.50
2019-03-25T09:47:37.642Z,289.15
2019-03-25T09:48:35.530Z,289.73
2019-03-25T09:49:35.865Z,290.03
2019-03-25T09:50:36.210Z,290.63
2019-03-25T09:51:36.532Z,290.81
2019-03-25T09:52:38.665Z,290.56
2019-03-25T09:53:37.189Z,290.39
2019-03-25T09:54:37.660Z,288.31
2019-03-25T09:55:37.885Z,290.32
2019-03-25T09:56:38.214Z,289.70
2019-03-25T09:57:38.510Z,288.11
2019-03-25T09:58:38.876Z,288.52
2019-03-25T09:59:39.183Z,288.85
2019-03-25T10:00:39.534Z,289.36
2019-03-25T10:01:39.848Z,290.07
2019-03-25T10:02:40.208Z,288.82
2019-03-25T10:03:40.499Z,289.42
2019-03-25T10:04:40.835Z,288.11
2019-03-25T10:05:41.179Z,289.29
2019-03-25T10:06:41.502Z,289.30
2019-03-25T10:07:41.843Z,288.50
2019-03-25T10:08:42.170Z,288.50
2019-03-25T10:09:42.469Z,288.24
2019-03-25T10:10:42.886Z,288.65
2019-03-25T10:11:43.117Z,288.73
2019-03-25T10:12:43.479Z,288.75
2019-03-25T10:13:43.797Z,289.22
2019-03-25T10:14:44.102Z,289.79
2019-03-25T10:15:44.466Z,289.70
2019-03-25T10:16:44.803Z,289.91
2019-03-25T10:17:45.132Z,288.92
2019-03-25T10:18:45.492Z,290.77
2019-03-25T10:19:45.858Z,290.24
2019-03-25T10:20:46.131Z,289.28
2019-03-25T10:21:46.457Z,289.90
2019-03-25T10:22:46.795Z,289.00
2019-03-25T10:23:47.147Z,289.43
2019-03-25T10:24:47.446Z,289.00
2019-03-25T10:25:47.796Z,289.51
2019-03-25T10:26:48.095Z,288.99
2019-03-25T10:27:48.575Z,290.05
2019-03-25T10:28:49.315Z,288.86
2019-03-25T10:29:49.094Z,289.80
2019-03-25T10:30:49.428Z,289.92
2019-03-25T10:31:49.749Z,290.09
2019-03-25T10:32:50.095Z,287.92
2019-03-25T10:33:50.431Z,289.65
2019-03-25T10:34:50.979Z,289.32
2019-03-25T10:35:51.181Z,289.40
2019-03-25T10:36:51.387Z,288.66
2019-03-25T10:37:51.816Z,288.54
2019-03-25T10:38:52.076Z,288.80
2019-03-25T10:39:52.388Z,289.19
2019-03-25T10:40:52.728Z,290.01
2019-03-25T10:41:53.049Z,291.06
2019-03-25T10:42:53.371Z,290.69
2019-03-25T10:43:53.760Z,291.76
2019-03-25T10:44:54.036Z,290.90
2019-03-25T10:45:54.388Z,290.15
2019-03-25T10:46:54.698Z,288.39
2019-03-25T10:47:55.055Z,288.28
2019-03-25T10:48:55.407Z,288.50
2019-03-25T10:49:55.683Z,289.55
2019-03-25T10:50:56.032Z,289.96
2019-03-25T10:51:56.385Z,289.78
2019-03-25T10:52:56.754Z,288.53
2019-03-25T10:53:57.026Z,288.57
2019-03-25T10:55:57.701Z,287.86
2019-03-25T10:56:58.051Z,288.11
2019-03-25T10:57:58.386Z,289.57
2019-03-25T10:58:58.728Z,289.11
2019-03-25T10:59:59.049Z,290.12
2019-03-25T11:00:59.487Z,288.06
2019-03-25T11:01:59.709Z,288.81
2019-03-25T11:03:00.038Z,288.83
2019-03-25T11:04:00.377Z,286.95
2019-03-25T11:05:00.676Z,288.44
2019-03-25T11:06:01.017Z,288.02
2019-03-25T11:07:01.374Z,288.15
2019-03-25T11:08:01.681Z,288.22
2019-03-25T11:09:02.117Z,288.16
2019-03-25T11:10:02.320Z,286.41
2019-03-25T11:11:03.522Z,287.52
2019-03-25T11:12:03.046Z,288.54
2019-03-25T11:13:03.337Z,287.22
2019-03-25T11:14:03.671Z,286.93
2019-03-25T11:15:03.984Z,287.65
2019-03-25T11:16:04.300Z,287.81
2019-03-25T11:17:04.701Z,288.07
2019-03-25T11:18:05.802Z,287.15
2019-03-25T11:19:05.312Z,288.34
2019-03-25T11:20:05.623Z,287.30
2019-03-25T11:21:05.953Z,288.70
2019-03-25T11:22:06.285Z,287.34
2019-03-25T11:23:06.625Z,287.41
2019-03-25T11:24:06.959Z,289.14
2019-03-25T11:25:07.338Z,288.15
2019-03-25T11:26:07.577Z,287.51
2019-03-25T11:27:07.932Z,287.73
2019-03-25T11:28:08.241Z,288.77
2019-03-25T11:29:08.956Z,289.43
2019-03-25T11:30:08.909Z,288.36
2019-03-25T11:31:09.370Z,288.35
2019-03-25T11:32:09.590Z,288.22
2019-03-25T11:33:09.941Z,289.93
2019-03-25T11:34:10.292Z,288.12
2019-03-25T11:35:10.558Z,289.30
2019-03-25T11:36:10.879Z,289.33
2019-03-25T11:37:11.283Z,289.41
2019-03-25T11:38:11.555Z,289.41
2019-03-25T11:39:11.879Z,288.35
2019-03-25T11:40:12.213Z,289.69
2019-03-25T11:41:12.542Z,290.59
2019-03-25T11:42:12.985Z,289.01
2019-03-25T11:43:13.191Z,289.85
2019-03-25T11:44:13.536Z,291.11
2019-03-25T11:45:13.864Z,290.77
2019-03-25T11:46:14.193Z,288.53
2019-03-25T11:47:14.540Z,289.44
2019-03-25T11:48:14.865Z,289.28
2019-03-25T11:49:15.197Z,289.77
2019-03-25T11:50:15.611Z,289.50
2019-03-25T11:51:15.837Z,288.90
2019-03-25T11:52:16.178Z,289.65
2019-03-25T11:53:16.510Z,288.95
2019-03-25T11:54:16.816Z,289.11
2019-03-25T11:55:17.827Z,288.45
2019-03-25T11:56:17.490Z,289.31
2019-03-25T11:57:17.874Z,289.62
2019-03-25T11:58:18.203Z,291.37
2019-03-25T11:59:18.998Z,290.89
2019-03-25T12:00:18.796Z,290.44
2019-03-25T12:01:19.148Z,291.17
2019-03-25T12:02:19.500Z,290.57
2019-03-25T12:03:19.826Z,290.81
2019-03-25T12:04:20.145Z,291.15
2019-03-25T12:05:20.494Z,290.84
2019-03-25T12:06:20.865Z,290.90
2019-03-25T12:07:21.195Z,285.01
2019-03-25T12:08:21.505Z,288.01
2019-03-25T12:09:21.816Z,289.06
2019-03-25T12:10:22.162Z,289.86
2019-03-25T12:11:23.663Z,290.56
2019-03-25T12:12:22.809Z,289.91
2019-03-25T12:13:23.165Z,289.91
2019-03-25T12:14:23.495Z,289.70
2019-03-25T12:15:24.163Z,290.05
2019-03-25T12:16:24.108Z,290.16
2019-03-25T12:17:24.469Z,291.49
2019-03-25T12:18:24.821Z,291.87
2019-03-25T12:19:25.128Z,288.20
2019-03-25T12:20:25.476Z,290.52
2019-03-25T12:21:25.783Z,290.44
2019-03-25T12:22:26.136Z,287.64
2019-03-25T12:23:26.758Z,289.50
2019-03-25T12:24:26.783Z,289.03
2019-03-25T12:25:27.143Z,289.86
2019-03-25T12:26:27.444Z,289.40
2019-03-25T12:27:27.855Z,289.96
2019-03-25T12:28:28.121Z,286.59
2019-03-25T12:29:30.330Z,289.74
2019-03-25T12:30:28.787Z,286.82
2019-03-25T12:31:29.144Z,289.18
2019-03-25T12:32:29.425Z,289.66
2019-03-25T12:33:29.804Z,290.56